Sankuniki — JD2465 — position and weather

sailwx.info

Track history (hours):
 
Tides and Currents Weather Stations Pressure Air Temp Water Temp Dewpoint Dewpoint Depression Visibility Wind Speed Wind Dir Waves Ship Positions

Sankuniki

Last reported at 2015-May-14 18:20 UTC. Time now 2015-May-27 14:01 UTC.
Position N 34°60' E 139°27'.
Warning: this ship's position is 12 days out of date.

Length 71 m; draft 4.2 m.

Type: Cargo ship. MMSI: 431000269.

Date/timePositionNaut miles runAvg speedWind from/ knotsBaromVisibWave heightAir tempDewpointWater temp
2015-May-14 18:20N 34°60' E 139°27'912.1
2015-May-14 17:33N 35°05' E 139°37'1211.7
2015-May-14 16:34N 35°13' E 139°46'1111.3
2015-May-14 15:33N 35°24' E 139°43'1212.0
2015-May-14 14:33N 35°31' E 139°55'10 9.5
2015-May-14 13:33N 35°37' E 140°05'0 0.0
2015-May-14 12:33N 35°37' E 140°05'0 0.0
2015-May-14 11:33N 35°37' E 140°05'0 0.0
2015-May-14 10:33N 35°37' E 140°05'0 0.0
2015-May-14 09:33N 35°37' E 140°05'0 0.0
2015-May-14 08:33N 35°37' E 140°05'0 0.0
2015-May-14 07:33N 35°37' E 140°05'0 0.0
2015-May-14 06:33N 35°37' E 140°05'0 0.0
2015-May-14 05:33N 35°37' E 140°05'0 0.0
2015-May-14 04:33N 35°37' E 140°05'0 0.0
2015-May-14 03:33N 35°37' E 140°05'0 0.0
2015-May-14 02:33N 35°37' E 140°05'0 0.0
2015-May-14 01:33N 35°37' E 140°05'0 0.0
2015-May-14 00:32N 35°37' E 140°05'0 0.0
2015-May-13 23:33N 35°37' E 140°05'0 0.0
2015-May-13 22:33N 35°37' E 140°05'4 4.2
2015-May-13 21:33N 35°33' E 140°01'0 0.0
2015-May-13 20:33N 35°33' E 140°01'0 0.0
2015-May-13 19:33N 35°33' E 140°01'0 0.0
2015-May-13 18:33N 35°33' E 140°01'0 0.0
2015-May-13 17:33N 35°33' E 140°01'0 0.0
2015-May-13 16:33N 35°33' E 140°01'0 0.0
2015-May-13 15:33N 35°33' E 140°01'0 0.0
2015-May-13 14:33N 35°33' E 140°01'0 0.0
2015-May-13 13:33N 35°33' E 140°01'1 0.5
2015-May-13 12:33N 35°33' E 140°01'1212.3
2015-May-13 11:33N 35°24' E 139°51'3 2.8
2015-May-13 10:34N 35°22' E 139°53'0 0.0
2015-May-13 09:33N 35°22' E 139°53'0 0.0
2015-May-13 08:33N 35°22' E 139°53'0 0.0
2015-May-13 07:34N 35°22' E 139°53'0 0.0
2015-May-13 06:34N 35°22' E 139°53'0 0.0
2015-May-13 05:34N 35°22' E 139°53'0 0.0
2015-May-13 04:34N 35°22' E 139°53'0 0.0
2015-May-13 03:34N 35°22' E 139°53'0 0.0
2015-May-13 02:34N 35°22' E 139°53'0 0.0
2015-May-13 01:29N 35°22' E 139°53'0 0.0
2015-May-13 00:33N 35°22' E 139°53'0 0.0
2015-May-12 23:33N 35°22' E 139°53'0 0.0
2015-May-12 22:33N 35°22' E 139°53'0 0.0
2015-May-12 21:33N 35°22' E 139°53'4 3.0
2015-May-12 20:23N 35°24' E 139°49'0 0.0
2015-May-12 19:30N 35°24' E 139°49'0 0.0
2015-May-12 18:28N 35°24' E 139°49'0 0.0
2015-May-12 17:28N 35°24' E 139°49'0 0.0
2015-May-12 16:24N 35°24' E 139°49'0 0.0
2015-May-12 15:28N 35°24' E 139°49'0 0.0
2015-May-12 14:34N 35°24' E 139°49'0 0.0
2015-May-12 13:34N 35°24' E 139°49'0 0.0
2015-May-12 12:29N 35°24' E 139°49'3 2.7
2015-May-12 11:34N 35°23' E 139°46'1211.6
2015-May-12 10:33N 35°12' E 139°47'1111.3
2015-May-12 09:33N 35°02' E 139°40'  
2015-May-06 21:18N 34°01' E 135°02'912.3
2015-May-06 20:33N 34°10' E 135°04'5 5.5
2015-May-06 19:33N 34°15' E 135°07'0 0.0
2015-May-06 18:33N 34°15' E 135°07'0 0.0
2015-May-06 17:33N 34°15' E 135°07'0 0.0
2015-May-06 16:33N 34°15' E 135°07'0 0.0
2015-May-06 15:33N 34°15' E 135°07'0 0.0
2015-May-06 14:33N 34°15' E 135°07'0 0.0
2015-May-06 13:33N 34°15' E 135°07'0 0.0
2015-May-06 12:33N 34°15' E 135°07'0 0.0
2015-May-06 11:33N 34°15' E 135°07'0 0.0
2015-May-06 10:33N 34°15' E 135°07'0 0.0
2015-May-06 09:33N 34°15' E 135°07'0 0.0
2015-May-06 08:33N 34°15' E 135°07'0 0.0
2015-May-06 07:33N 34°15' E 135°07'3 2.5
2015-May-06 06:33N 34°13' E 135°05'  
Track history (hours):
 
Tides and Currents Weather Stations Pressure Air Temp Water Temp Dewpoint Dewpoint Depression Visibility Wind Speed Wind Dir Waves Ship Positions

Sankuniki

Last reported at 2015-May-14 18:20 UTC. Time now 2015-May-27 14:01 UTC.
Position N 34°60' E 139°27'.
Warning: this ship's position is 12 days out of date.

Length 71 m; draft 4.2 m.

Type: Cargo ship. MMSI: 431000269.

Date/timePositionNaut miles runAvg speedWind from/ knotsBaromVisibWave heightAir tempDewpointWater temp
2015-May-14 18:20N 34°60' E 139°27'912.1
2015-May-14 17:33N 35°05' E 139°37'1211.7
2015-May-14 16:34N 35°13' E 139°46'1111.3
2015-May-14 15:33N 35°24' E 139°43'1212.0
2015-May-14 14:33N 35°31' E 139°55'10 9.5
2015-May-14 13:33N 35°37' E 140°05'0 0.0
2015-May-14 12:33N 35°37' E 140°05'0 0.0
2015-May-14 11:33N 35°37' E 140°05'0 0.0
2015-May-14 10:33N 35°37' E 140°05'0 0.0
2015-May-14 09:33N 35°37' E 140°05'0 0.0
2015-May-14 08:33N 35°37' E 140°05'0 0.0
2015-May-14 07:33N 35°37' E 140°05'0 0.0
2015-May-14 06:33N 35°37' E 140°05'0 0.0
2015-May-14 05:33N 35°37' E 140°05'0 0.0
2015-May-14 04:33N 35°37' E 140°05'0 0.0
2015-May-14 03:33N 35°37' E 140°05'0 0.0
2015-May-14 02:33N 35°37' E 140°05'0 0.0
2015-May-14 01:33N 35°37' E 140°05'0 0.0
2015-May-14 00:32N 35°37' E 140°05'0 0.0
2015-May-13 23:33N 35°37' E 140°05'0 0.0
2015-May-13 22:33N 35°37' E 140°05'4 4.2
2015-May-13 21:33N 35°33' E 140°01'0 0.0
2015-May-13 20:33N 35°33' E 140°01'0 0.0
2015-May-13 19:33N 35°33' E 140°01'0 0.0
2015-May-13 18:33N 35°33' E 140°01'0 0.0
2015-May-13 17:33N 35°33' E 140°01'0 0.0
2015-May-13 16:33N 35°33' E 140°01'0 0.0
2015-May-13 15:33N 35°33' E 140°01'0 0.0
2015-May-13 14:33N 35°33' E 140°01'0 0.0
2015-May-13 13:33N 35°33' E 140°01'1 0.5
2015-May-13 12:33N 35°33' E 140°01'1212.3
2015-May-13 11:33N 35°24' E 139°51'3 2.8
2015-May-13 10:34N 35°22' E 139°53'0 0.0
2015-May-13 09:33N 35°22' E 139°53'0 0.0
2015-May-13 08:33N 35°22' E 139°53'0 0.0
2015-May-13 07:34N 35°22' E 139°53'0 0.0
2015-May-13 06:34N 35°22' E 139°53'0 0.0
2015-May-13 05:34N 35°22' E 139°53'0 0.0
2015-May-13 04:34N 35°22' E 139°53'0 0.0
2015-May-13 03:34N 35°22' E 139°53'0 0.0
2015-May-13 02:34N 35°22' E 139°53'0 0.0
2015-May-13 01:29N 35°22' E 139°53'0 0.0
2015-May-13 00:33N 35°22' E 139°53'0 0.0
2015-May-12 23:33N 35°22' E 139°53'0 0.0
2015-May-12 22:33N 35°22' E 139°53'0 0.0
2015-May-12 21:33N 35°22' E 139°53'4 3.0
2015-May-12 20:23N 35°24' E 139°49'0 0.0
2015-May-12 19:30N 35°24' E 139°49'0 0.0
2015-May-12 18:28N 35°24' E 139°49'0 0.0
2015-May-12 17:28N 35°24' E 139°49'0 0.0
2015-May-12 16:24N 35°24' E 139°49'0 0.0
2015-May-12 15:28N 35°24' E 139°49'0 0.0
2015-May-12 14:34N 35°24' E 139°49'0 0.0
2015-May-12 13:34N 35°24' E 139°49'0 0.0
2015-May-12 12:29N 35°24' E 139°49'3 2.7
2015-May-12 11:34N 35°23' E 139°46'1211.6
2015-May-12 10:33N 35°12' E 139°47'1111.3
2015-May-12 09:33N 35°02' E 139°40'  
2015-May-06 21:18N 34°01' E 135°02'912.3
2015-May-06 20:33N 34°10' E 135°04'5 5.5
2015-May-06 19:33N 34°15' E 135°07'0 0.0
2015-May-06 18:33N 34°15' E 135°07'0 0.0
2015-May-06 17:33N 34°15' E 135°07'0 0.0
2015-May-06 16:33N 34°15' E 135°07'0 0.0
2015-May-06 15:33N 34°15' E 135°07'0 0.0
2015-May-06 14:33N 34°15' E 135°07'0 0.0
2015-May-06 13:33N 34°15' E 135°07'0 0.0
2015-May-06 12:33N 34°15' E 135°07'0 0.0
2015-May-06 11:33N 34°15' E 135°07'0 0.0
2015-May-06 10:33N 34°15' E 135°07'0 0.0
2015-May-06 09:33N 34°15' E 135°07'0 0.0
2015-May-06 08:33N 34°15' E 135°07'0 0.0
2015-May-06 07:33N 34°15' E 135°07'3 2.5
2015-May-06 06:33N 34°13' E 135°05'  

Dump ship's entire track history